Weather observations for the past three days for
Creston Municipal Airport
Metric (Imperial)
Date Time (cdt) Wind (kph) Vis. (km) Weather Sky Cond. Temperature (ºC) Relative Humidity Wind Chill (°C) Heat Index (°C) Pressure Precipitation (cm)
Air Dwpt 6 hour altimeter (cm) sea level (mb) 1 hr 3 hr 6 hr
Max. Min.
07 03:55 SW 15 16.09 Partly Cloudy SCT100 5 -2 61% 2 76.05 0.0
07 03:35 S 19 16.09 Overcast OVC100 5 -1 66% 2 76.05 0.0
07 03:15 S 15 16.09 Mostly Cloudy BKN100 5 -2 61% 2 76.07 0.0
07 02:55 S 15 16.09 Mostly Cloudy BKN090 4 -2 65% 1 76.07 0.0
07 02:35 S 13 16.09 Fair CLR 5 -2 61% 2 76.1 0.0
07 02:15 S 15 16.09 Fair CLR 5 -2 61% 2 76.12 0.0
07 01:55 S 15 16.09 Fair CLR 5 -2 61% 2 76.15 0.0
07 01:35 S 15 16.09 Fair CLR 5 -2 61% 2 76.15 0.0
07 01:15 S 17 16.09 Fair CLR 5 -3 57% 2 76.17 0.0
07 00:55 S 13 16.09 Fair CLR 5 -3 57% 2 76.17 0.0
07 00:35 S 15 16.09 Fair CLR 4 -3 61% 1 76.2 0.0
07 00:15 S 13 16.09 Fair CLR 4 -3 61% 1 76.2 0.0
06 23:35 SE 7 16.09 Fair CLR 5 -4 53% 4 76.2 0.0
06 23:15 SE 9 16.09 Fair CLR 6 -3 53% 4 76.23 0.0
06 22:55 S 7 16.09 Fair CLR 6 -3 53% 5 76.23 0.0
06 22:35 SE 7 16.09 Fair CLR 7 -5 43% 6 76.23 0.0
06 22:15 S 7 16.09 Fair CLR 7 -2 53% 6 76.23 0.0
06 21:55 Calm 16.09 Fair CLR 8 -5 40% 76.23 0.0
06 21:35 Calm 12.87 Fair CLR 9 -5 37% 76.23 0.0
06 20:55 Calm 16.09 Fair CLR 11 -6 30% 76.2 0.0
06 20:35 NW 6 16.09 Fair CLR 11 -6 30% 76.2 0.0
06 20:15 NW 9 16.09 Fair CLR 11 -5 32% 76.2 0.0
06 19:55 NW 13 16.09 Fair CLR 11 -5 32% 76.2 0.0
06 19:35 NW 15 16.09 Fair CLR 12 -5 30% 76.2 0.0
06 19:15 NW 20 16.09 Fair CLR 13 -5 28% 76.2 0.0
06 18:55 NW 19 16.09 Fair CLR 13 -5 28% 76.23 0.0
06 18:35 W 19 G 37 16.09 Partly Cloudy SCT080 13 -5 28% 76.23 0.0
06 18:15 N 20 G 37 16.09 Partly Cloudy SCT080 14 -5 27% 76.23 0.0
06 17:55 W 28 16.09 A Few Clouds FEW080 14 -5 27% 76.25 0.0
06 17:35 NW 17 16.09 Mostly Cloudy BKN080 14 -5 27% 76.23 0.0
06 17:15 NW 15 G 33 16.09 Mostly Cloudy BKN080 14 -4 29% 76.25 0.0
06 16:55 NW 24 G 33 16.09 Partly Cloudy FEW080 SCT090 14 -4 29% 76.25 0.0
06 16:35 NW 30 16.09 Mostly Cloudy BKN080 BKN090 14 -4 29% 76.25 0.0
06 16:15 NW 20 G 30 16.09 Overcast BKN080 OVC090 13 -4 31% 76.28 0.0
06 15:55 N 20 G 31 0.00 Mostly Cloudy BKN075 BKN085 13 -4 31% 76.3 0.0
06 15:35 NW 26 16.09 Mostly Cloudy BKN075 BKN090 13 -4 31% 76.3 0.0
06 15:15 NW 22 G 46 16.09 Partly Cloudy SCT075 13 -4 31% 76.33 0.0
06 14:55 NW 26 G 39 16.09 Partly Cloudy SCT075 13 -4 31% 76.33 0.0
06 14:35 W 20 G 39 16.09 Partly Cloudy SCT075 13 -3 33% 76.33 0.0
06 14:15 NW 31 G 43 16.09 Partly Cloudy SCT070 13 -4 31% 76.33 0.0
06 13:55 N 26 G 39 16.09 Partly Cloudy BKN070 SCT085 12 -4 33% 76.33 0.0
06 13:35 NW 30 G 41 16.09 Partly Cloudy SCT070 12 -4 33% 76.35 0.0
06 13:15 NW 28 G 39 16.09 A Few Clouds FEW070 12 -4 33% 76.35 0.0
06 12:55 N 22 G 37 16.09 Mostly Cloudy BKN070 12 -4 33% 76.38 0.0
06 12:35 NW 30 16.09 Mostly Cloudy BKN070 12 -4 33% 76.38 0.0
06 12:15 NW 35 16.09 Mostly Cloudy and Breezy BKN070 12 -4 33% 76.38 0.0
06 11:55 NW 20 16.09 Partly Cloudy SCT070 11 -4 35% 76.4 0.0
06 11:35 NW 30 G 41 16.09 A Few Clouds FEW065 12 -4 33% 76.4 0.0
06 11:15 NW 33 16.09 A Few Clouds and Breezy FEW065 11 -4 35% 76.4 0.0
06 10:55 N 19 G 30 16.09 NULL NULL 10 -4 37% 8 76.38 0.0
06 10:35 NW 11 0.00 NULL NULL 0 0 0% 76.4 0.0
06 09:55 NW 9 G 30 16.09 Fair CLR 9 -4 40% 8 76.4 0.0
06 09:35 NW 15 16.09 Fair CLR 9 -3 43% 7 76.4 0.0
06 09:15 Vrbl 6 16.09 Fair CLR 8 -3 46% 76.38 0.0
06 08:55 N 6 16.09 Fair CLR 8 -3 46% 76.38 0.0
06 08:35 N 7 16.09 Fair CLR 7 -3 49% 6 76.35 0.0
06 08:15 NW 9 16.09 Fair CLR 7 -2 53% 5 76.33 0.0
06 07:55 N 11 16.09 Fair CLR 6 -2 57% 4 76.3 0.0
06 07:35 N 9 16.09 Fair CLR 6 -2 57% 4 76.28 0.0
06 06:55 N 7 16.09 Fair CLR 4 -2 65% 2 76.25 0.0
06 06:35 NW 9 16.09 Fair CLR 4 -2 65% 2 76.25 0.0
06 06:15 Calm 16.09 Fair CLR 4 -2 65% 76.23 0.0
06 05:55 NW 9 16.09 Fair CLR 4 -2 65% 2 76.23 0.0
06 05:35 NW 13 16.09 Fair CLR 5 -3 57% 2 76.2 0.0
06 05:15 NW 11 16.09 Fair CLR 5 -2 61% 3 76.17 0.0
06 04:55 NW 13 16.09 Fair CLR 5 -2 61% 2 76.17 0.0
06 04:35 NW 11 16.09 Fair CLR 4 -2 65% 2 76.17 0.0
06 04:15 NW 9 16.09 Fair CLR 4 -2 65% 2 76.15 0.0
06 03:55 NW 9 16.09 Fair CLR 4 -2 65% 2 76.15 0.0
06 03:35 NW 7 16.09 Fair CLR 5 -2 61% 4 76.12 0.0
06 03:15 NW 9 16.09 Fair CLR 5 -3 57% 3 76.12 0.0
06 02:55 N 7 16.09 Fair CLR 5 -4 53% 4 76.1 0.0
06 02:35 N 9 16.09 Fair CLR 5 -4 53% 3 76.1 0.0
06 02:15 N 9 0.00 Fair CLR 6 -5 46% 4 76.12 0.0
06 01:55 N 11 16.09 Fair CLR 6 -4 49% 4 76.1 0.0
06 01:35 N 11 16.09 Fair CLR 6 -4 49% 4 76.12 0.0
06 01:10 NW 13 16.09 A Few Clouds FEW120 6 -3 53% 4 76.15 0.0
06 00:55 NW 13 16.09 A Few Clouds FEW120 7 -4 46% 5 76.12 0.0
06 00:35 NW 13 16.09 Fair CLR 7 -3 49% 5 76.1 0.0
06 00:15 NW 9 16.09 Fair CLR 7 -3 49% 5 76.07 0.0
05 23:55 N 11 16.09 A Few Clouds FEW120 7 -3 49% 5 76.05 0.0
05 23:35 N 11 16.09 Partly Cloudy SCT120 8 -3 46% 6 76.05 0.0
05 23:15 N 13 16.09 Mostly Cloudy BKN120 8 -3 46% 6 76.02 0.0
05 22:55 N 13 16.09 Partly Cloudy SCT110 8 -3 46% 6 76.02 0.0
05 22:35 NW 13 16.09 A Few Clouds FEW110 9 -3 43% 7 76.02 0.0
05 22:15 N 17 16.09 Partly Cloudy SCT120 9 -3 43% 7 76 0.0
05 21:55 NW 17 16.09 Partly Cloudy SCT120 10 -3 40% 8 76 0.0
05 21:35 N 15 16.09 Fair CLR 9 -3 43% 7 75.95 0.0
05 21:15 NW 15 16.09 Fair CLR 10 -3 40% 8 75.95 0.0
05 20:55 NW 20 16.09 Partly Cloudy SCT100 10 -3 40% 8 75.95 0.0
05 20:35 NW 19 16.09 Mostly Cloudy BKN100 11 -3 38% 75.92 0.0
05 20:15 NW 24 16.09 Partly Cloudy FEW100 SCT120 11 -3 38% 75.92 0.0
05 19:55 NW 24 G 33 16.09 A Few Clouds FEW120 11 -3 38% 75.92 0.0
05 19:35 NW 28 16.09 Mostly Cloudy BKN120 12 -3 35% 75.9 0.0
05 19:15 NW 19 16.09 Mostly Cloudy BKN120 12 -3 35% 75.87 0.0
05 18:55 NW 19 16.09 Fair CLR 12 -3 35% 75.87 0.0
05 18:35 NW 26 16.09 Fair CLR 12 -3 35% 75.84 0.0
05 18:15 NW 31 16.09 Fair CLR 13 -4 31% 75.84 0.0
05 17:55 N 30 16.09 Fair CLR 13 -4 31% 75.84 0.0
05 17:35 NW 28 G 39 16.09 Fair CLR 13 -3 33% 75.82 0.0
05 17:15 NW 31 16.09 Fair CLR 14 -4 29% 75.82 0.0
05 16:55 NW 30 16.09 Fair CLR 14 -3 31% 75.82 0.0
05 16:35 NW 30 G 39 16.09 Fair CLR 14 -2 33% 75.82 0.0
05 16:15 NW 11 16.09 A Few Clouds FEW065 FEW120 14 0 39% 75.84 0.0
05 15:55 Vrbl 9 G 19 16.09 Fair CLR 13 -1 38% 75.84 0.0
05 15:35 NW 13 16.09 Fair CLR 13 -1 38% 75.87 0.0
05 15:15 N 13 16.09 Fair CLR 13 -1 38% 75.87 0.0
05 14:55 N 17 16.09 Fair CLR 13 0 41% 75.9 0.0
05 14:35 NW 19 16.09 Fair CLR 13 0 41% 75.9 0.0
05 14:15 NW 15 G 30 16.09 Fair CLR 13 0 41% 75.9 0.0
05 13:55 NW 20 16.09 Fair CLR 13 1 44% 75.9 0.0
05 13:35 NW 20 16.09 Fair CLR 13 1 44% 75.9 0.0
05 13:15 NW 20 16.09 A Few Clouds FEW055 13 0 41% 75.9 0.0
05 12:55 W 19 G 39 16.09 Partly Cloudy SCT055 13 1 44% 75.9 0.0
05 12:35 W 9 G 20 16.09 A Few Clouds FEW050 FEW055 13 1 44% 75.92 0.0
05 12:15 SW 6 G 20 16.09 Fair CLR 12 2 51% 75.92 0.0
05 11:55 W 11 16.09 Fair CLR 12 3 54% 75.92 0.0
05 11:35 SW 11 G 24 16.09 Fair CLR 12 3 54% 75.95 0.0
05 11:15 W 11 16.09 Fair CLR 11 3 58% 75.95 0.0
05 10:35 Calm 16.09 Fair CLR 11 2 54% 75.92 0.0
05 10:15 SW 9 16.09 Fair CLR 11 3 58% 75.92 0.0
05 09:55 SE 7 16.09 Fair CLR 10 3 62% 9 75.9 0.0
05 09:35 S 6 16.09 Fair CLR 10 4 67% 75.9 0.0
05 09:15 S 7 16.09 Fair CLR 10 4 67% 9 75.9 0.0
05 08:55 SW 7 16.09 Fair CLR 9 5 76% 8 75.9 0.0
05 08:35 Calm 16.09 Fair CLR 9 5 76% 75.9 0.0
05 08:15 Calm 16.09 Fair CLR 9 5 76% 75.84 0.0
05 07:55 Calm 16.09 Fair CLR 9 5 76% 75.79 0.0
05 07:35 Calm 16.09 Fair CLR 8 5 82% 75.79 0.0
05 07:15 N 7 16.09 Fair CLR 8 5 82% 7 75.77 0.0
05 06:55 N 6 16.09 Fair CLR 8 6 87% 75.79 0.0
05 06:35 NW 6 16.09 A Few Clouds FEW110 8 6 87% 75.79 0.0
05 06:15 Calm 16.09 Partly Cloudy SCT110 8 6 87% 75.79 0.0
05 05:55 SW 7 16.09 Mostly Cloudy BKN110 8 6 87% 7 75.82 0.0 0.03
05 05:35 SW 7 16.09 A Few Clouds FEW120 8 6 87% 7 75.79 0.0
05 05:15 SW 6 16.09 Mostly Cloudy FEW065 SCT075 BKN120 8 6 87% 75.77 0.0
05 04:55 SW 7 16.09 Overcast BKN070 OVC085 8 6 87% 7 75.77 0.0
05 04:35 SW 7 16.09 Overcast OVC085 8 6 87% 7 75.77 0.0
05 04:15 S 6 16.09 Overcast OVC085 8 5 82% 75.72 0.0
05 03:55 Calm 16.09 Overcast OVC080 8 5 82% 75.69 0.0
05 03:35 Calm 16.09 Overcast OVC080 8 4 76% 75.67 0.0
05 03:15 E 7 16.09 Light Rain FEW050 BKN075 OVC085 8 5 82% 7 75.64 0.0
05 02:55 N 11 16.09 Mostly Cloudy FEW040 SCT050 BKN060 8 4 76% 6 75.59 0.0 0.03
05 02:35 NE 17 G 26 11.27 Rain FEW033 SCT044 BKN060 9 3 66% 7 75.59 0.0
05 02:15 N 19 16.09 Overcast OVC080 10 1 54% 8 75.67 0.0
05 01:55 N 28 16.09 Overcast OVC085 10 1 54% 7 75.59 0.0
05 01:35 N 24 G 33 16.09 Overcast OVC090 10 1 54% 7 75.64 0.0
05 01:15 N 22 16.09 Mostly Cloudy FEW031 FEW043 BKN100 10 2 58% 7 75.62 0.0
05 00:55 N 19 G 31 16.09 Light Rain SCT031 SCT042 BKN055 10 2 58% 8 75.64 0.0
05 00:35 N 26 G 39 16.09 Mostly Cloudy FEW055 SCT070 BKN085 12 -1 41% 75.69 0.0
05 00:15 N 26 G 37 16.09 Overcast OVC100 12 -1 41% 75.62 0.0
04 23:55 N 28 16.09 Overcast OVC110 12 0 44% 75.57 0.0
04 23:35 N 28 G 44 16.09 Overcast FEW100 OVC120 12 0 44% 75.59 0.0
04 23:15 N 28 G 41 16.09 Overcast OVC110 13 -1 38% 75.54 0.0
04 22:55 N 35 16.09 Mostly Cloudy and Breezy BKN110 13 -1 38% 75.49 0.0
04 22:35 N 39 G 54 16.09 Partly Cloudy and Breezy SCT100 SCT120 13 -2 36% 75.49 0.0
04 22:15 N 28 16.09 Mostly Cloudy FEW090 BKN110 13 -1 38% 75.54 0.0
04 21:55 N 37 G 52 16.09 A Few Clouds and Breezy FEW120 14 -1 36% 75.54 0.0
04 21:35 N 24 G 39 0.00 A Few Clouds FEW120 14 0 39% 75.49 0.0
04 21:15 N 26 G 43 16.09 A Few Clouds FEW120 15 0 36% 75.46 0.0
04 20:55 N 35 G 44 16.09 A Few Clouds and Breezy FEW120 17 0 32% 75.41 0.0
04 20:35 N 30 G 39 16.09 Fair CLR 18 1 32% 75.36 0.0
04 20:15 N 39 G 54 14.48 Fair and Breezy CLR 19 1 30% 75.31 0.0
04 19:55 N 31 G 44 16.09 Fair CLR 20 2 30% 75.26 0.0
04 19:35 N 26 G 37 16.09 Fair CLR 21 2 29% 75.26 0.0
04 19:15 N 30 G 46 16.09 Fair CLR 22 2 27% 75.21 0.0
04 18:55 N 39 G 48 16.09 Fair and Breezy CLR 23 2 25% 75.18 0.0
04 18:35 N 33 G 48 14.48 Fair and Breezy CLR 24 3 25% 25 75.16 0.0
04 18:15 N 35 G 48 16.09 Fair and Breezy CLR 25 4 26% 25 75.13 0.0
04 17:55 NW 30 G 43 16.09 Fair CLR 25 6 30% 25 75.13 0.0
04 17:35 NW 28 G 39 16.09 Fair CLR 26 7 30% 26 75.11 0.0
04 17:15 NW 30 G 41 16.09 A Few Clouds FEW100 26 7 30% 26 75.08 0.0
04 16:55 NW 24 G 44 16.09 Partly Cloudy SCT100 26 6 28% 26 75.08 0.0
04 16:35 W 22 G 43 14.48 A Few Clouds FEW100 27 4 23% 26 75.06 0.0
04 16:15 NW 20 G 46 16.09 A Few Clouds FEW110 27 4 23% 26 75.06 0.0
04 15:55 W 22 G 37 14.48 Fair CLR 27 5 24% 26 75.08 0.0
04 15:35 NW 22 16.09 Fair CLR 27 6 26% 26 75.08 0.0
04 15:15 W 17 G 39 16.09 Fair CLR 27 5 24% 26 75.08 0.0
04 14:55 NW 30 16.09 Fair CLR 27 5 24% 26 75.08 0.0
04 14:35 W 30 G 43 16.09 Fair CLR 27 5 24% 26 75.08 0.0
04 14:15 W 20 G 39 16.09 Fair CLR 27 6 26% 26 75.11 0.0
04 13:55 NW 22 G 35 16.09 A Few Clouds FEW090 27 7 28% 26 75.11 0.0
04 13:35 W 17 G 35 16.09 Fair CLR 26 8 32% 26 75.11 0.0
04 13:15 W 24 G 33 0.00 Fair CLR 26 8 32% 26 75.11 0.0
04 12:55 W 22 G 31 16.09 Fair CLR 26 10 37% 26 75.11 0.0
04 12:35 W 20 16.09 Fair CLR 26 9 34% 26 75.13 0.0
04 12:15 SW 19 G 30 16.09 Fair CLR 25 10 39% 26 75.13 0.0
04 11:55 W 17 G 28 16.09 Fair CLR 25 10 39% 26 75.13 0.0
04 11:35 SW 19 G 28 16.09 Fair CLR 24 10 41% 25 75.13 0.0
04 11:15 W 20 16.09 Fair CLR 24 10 41% 25 75.16 0.0
04 10:55 Calm 14.48 Fair CLR 23 10 44% 75.13 0.0
04 10:35 SW 13 16.09 Fair CLR 22 10 47% 75.13 0.0
04 10:15 SW 13 16.09 Fair CLR 21 10 50% 75.13 0.0
04 09:55 SW 13 16.09 Fair CLR 20 10 53% 75.13 0.0
04 09:35 SW 19 16.09 Fair CLR 19 9 52% 75.16 0.0
04 09:15 SW 15 16.09 A Few Clouds FEW110 18 9 56% 75.16 0.0
04 08:55 SW 17 16.09 A Few Clouds FEW110 17 9 60% 75.18 0.0
04 08:35 S 13 16.09 Partly Cloudy SCT110 16 9 63% 75.18 0.0
04 08:15 S 15 16.09 A Few Clouds FEW110 15 8 63% 75.18 0.0
04 07:55 S 17 14.48 A Few Clouds FEW120 15 8 63% 75.18 0.0
04 07:35 S 11 16.09 Fair CLR 13 7 67% 75.18 0.0
04 06:55 SE 7 16.09 Fair CLR 11 5 67% 75.18 0.0
04 06:35 SE 7 16.09 Fair CLR 10 4 67% 9 75.18 0.0
04 06:15 S 7 16.09 Fair CLR 10 4 67% 9 75.18 0.0
04 05:55 S 11 16.09 Fair CLR 11 4 62% 75.21 0.0
04 05:35 S 7 16.09 Fair CLR 12 4 58% 75.23 0.0
04 05:15 S 9 16.09 Fair CLR 11 4 62% 75.23 0.0
04 04:55 S 13 16.09 Fair CLR 12 4 58% 75.26 0.0
04 04:35 S 13 16.09 Fair CLR 11 4 62% 75.26 0.0
04 04:15 S 15 16.09 Fair CLR 12 4 58% 75.29 0.0
Date Time (cdt) Wind (kph) Vis. (km) Weather Sky Cond. Air Dwpt Max. Min. Relative Humidity Wind Chill (°C) Heat Index (°C) altimeter (cm) sea level (mb) 1 hr 3 hr 6 hr
6 hour
Temperature (ºC) Pressure Precipitation (cm)